sensor_id;sensor_type;location;lat;lon;timestamp;temperature;humidity
18648;DHT22;9453;50.294;18.644;2023-08-21T04:01:30;20.50;99.90
18648;DHT22;9453;50.294;18.644;2023-08-21T04:03:57;20.50;99.90
18648;DHT22;9453;50.294;18.644;2023-08-21T04:06:24;20.50;99.90
18648;DHT22;9453;50.294;18.644;2023-08-21T04:08:51;20.50;99.90
18648;DHT22;9453;50.294;18.644;2023-08-21T04:11:18;20.50;99.90
18648;DHT22;9453;50.294;18.644;2023-08-21T04:13:45;20.50;99.90
18648;DHT22;9453;50.294;18.644;2023-08-21T04:16:12;20.50;99.90
18648;DHT22;9453;50.294;18.644;2023-08-21T04:18:40;20.50;99.90
18648;DHT22;9453;50.294;18.644;2023-08-21T04:21:07;20.60;99.90
18648;DHT22;9453;50.294;18.644;2023-08-21T04:23:35;20.60;99.90
18648;DHT22;9453;50.294;18.644;2023-08-21T04:26:02;20.60;99.90
18648;DHT22;9453;50.294;18.644;2023-08-21T04:28:30;20.70;99.90
18648;DHT22;9453;50.294;18.644;2023-08-21T04:30:57;20.70;99.90
18648;DHT22;9453;50.294;18.644;2023-08-21T04:33:24;20.70;99.90
18648;DHT22;9453;50.294;18.644;2023-08-21T04:35:53;20.80;99.90
18648;DHT22;9453;50.294;18.644;2023-08-21T04:38:19;20.80;99.90
18648;DHT22;9453;50.294;18.644;2023-08-21T04:40:46;20.80;99.90
18648;DHT22;9453;50.294;18.644;2023-08-21T04:43:13;20.90;99.90
18648;DHT22;9453;50.294;18.644;2023-08-21T04:45:47;20.90;99.90
18648;DHT22;9453;50.294;18.644;2023-08-21T04:48:14;21.00;99.90
18648;DHT22;9453;50.294;18.644;2023-08-21T04:50:41;21.00;99.90
18648;DHT22;9453;50.294;18.644;2023-08-21T04:53:09;21.20;99.90
18648;DHT22;9453;50.294;18.644;2023-08-21T04:55:36;21.30;99.90
18648;DHT22;9453;50.294;18.644;2023-08-21T04:58:05;21.40;99.90
18648;DHT22;9453;50.294;18.644;2023-08-21T05:00:32;21.50;99.90
18648;DHT22;9453;50.294;18.644;2023-08-21T05:02:59;21.70;99.90
18648;DHT22;9453;50.294;18.644;2023-08-21T05:05:26;21.80;99.90
18648;DHT22;9453;50.294;18.644;2023-08-21T05:07:53;22.00;99.90
18648;DHT22;9453;50.294;18.644;2023-08-21T05:10:22;22.20;99.90
18648;DHT22;9453;50.294;18.644;2023-08-21T05:12:49;22.30;99.90
18648;DHT22;9453;50.294;18.644;2023-08-21T05:15:16;22.40;99.90
18648;DHT22;9453;50.294;18.644;2023-08-21T05:17:42;22.50;99.90
18648;DHT22;9453;50.294;18.644;2023-08-21T05:20:10;22.60;99.90
18648;DHT22;9453;50.294;18.644;2023-08-21T05:22:40;22.70;99.90
18648;DHT22;9453;50.294;18.644;2023-08-21T05:25:08;22.80;99.90
18648;DHT22;9453;50.294;18.644;2023-08-21T05:27:36;22.90;99.90
18648;DHT22;9453;50.294;18.644;2023-08-21T05:30:04;23.00;99.90
18648;DHT22;9453;50.294;18.644;2023-08-21T05:32:31;23.00;99.90
18648;DHT22;9453;50.294;18.644;2023-08-21T05:34:58;23.00;99.90
18648;DHT22;9453;50.294;18.644;2023-08-21T05:37:25;23.00;99.90
18648;DHT22;9453;50.294;18.644;2023-08-21T05:39:52;23.00;99.90
18648;DHT22;9453;50.294;18.644;2023-08-21T05:42:19;23.10;99.90
18648;DHT22;9453;50.294;18.644;2023-08-21T05:44:47;23.10;99.90
18648;DHT22;9453;50.294;18.644;2023-08-21T05:47:14;23.10;99.90
18648;DHT22;9453;50.294;18.644;2023-08-21T05:49:41;23.00;99.90
18648;DHT22;9453;50.294;18.644;2023-08-21T05:52:09;23.00;99.90
18648;DHT22;9453;50.294;18.644;2023-08-21T05:54:36;23.00;99.90
18648;DHT22;9453;50.294;18.644;2023-08-21T05:57:03;22.90;99.90
18648;DHT22;9453;50.294;18.644;2023-08-21T05:59:31;22.80;99.90
18648;DHT22;9453;50.294;18.644;2023-08-21T06:02:00;22.70;99.90
18648;DHT22;9453;50.294;18.644;2023-08-21T06:04:27;22.70;99.90
18648;DHT22;9453;50.294;18.644;2023-08-21T06:06:54;22.60;99.90
18648;DHT22;9453;50.294;18.644;2023-08-21T06:09:21;22.60;99.90
18648;DHT22;9453;50.294;18.644;2023-08-21T06:11:47;22.70;99.90
18648;DHT22;9453;50.294;18.644;2023-08-21T06:14:14;22.70;99.90
18648;DHT22;9453;50.294;18.644;2023-08-21T06:16:41;22.70;99.90
18648;DHT22;9453;50.294;18.644;2023-08-21T06:19:10;22.60;99.90
18648;DHT22;9453;50.294;18.644;2023-08-21T06:21:37;22.70;99.90
18648;DHT22;9453;50.294;18.644;2023-08-21T06:24:04;22.70;99.90
18648;DHT22;9453;50.294;18.644;2023-08-21T06:26:31;22.70;99.90
18648;DHT22;9453;50.294;18.644;2023-08-21T06:28:58;22.80;99.90
18648;DHT22;9453;50.294;18.644;2023-08-21T06:31:25;22.80;99.90
18648;DHT22;9453;50.294;18.644;2023-08-21T06:33:52;22.80;99.90
18648;DHT22;9453;50.294;18.644;2023-08-21T06:36:20;22.80;99.90
18648;DHT22;9453;50.294;18.644;2023-08-21T06:38:47;22.80;99.90
18648;DHT22;9453;50.294;18.644;2023-08-21T06:41:14;22.80;99.90
18648;DHT22;9453;50.294;18.644;2023-08-21T06:43:40;22.90;99.90
18648;DHT22;9453;50.294;18.644;2023-08-21T06:46:08;23.00;99.90
18648;DHT22;9453;50.294;18.644;2023-08-21T06:48:37;23.00;99.90
18648;DHT22;9453;50.294;18.644;2023-08-21T06:51:04;23.00;99.90
18648;DHT22;9453;50.294;18.644;2023-08-21T06:53:33;23.10;99.90
18648;DHT22;9453;50.294;18.644;2023-08-21T06:56:00;23.10;99.90
18648;DHT22;9453;50.294;18.644;2023-08-21T06:58:27;23.10;99.90
18648;DHT22;9453;50.294;18.644;2023-08-21T07:00:54;23.00;99.90
18648;DHT22;9453;50.294;18.644;2023-08-21T07:03:21;23.00;99.90
18648;DHT22;9453;50.294;18.644;2023-08-21T07:05:53;23.00;99.90
18648;DHT22;9453;50.294;18.644;2023-08-21T07:08:21;23.10;99.90
18648;DHT22;9453;50.294;18.644;2023-08-21T07:10:50;23.10;99.90
18648;DHT22;9453;50.294;18.644;2023-08-21T07:13:17;23.10;99.90
18648;DHT22;9453;50.294;18.644;2023-08-21T07:15:46;23.10;99.90
18648;DHT22;9453;50.294;18.644;2023-08-21T07:18:13;23.30;99.90
18648;DHT22;9453;50.294;18.644;2023-08-21T07:20:40;23.40;99.90
18648;DHT22;9453;50.294;18.644;2023-08-21T07:23:07;23.60;99.90
18648;DHT22;9453;50.294;18.644;2023-08-21T07:25:34;23.70;99.90
18648;DHT22;9453;50.294;18.644;2023-08-21T07:28:03;23.80;99.90
18648;DHT22;9453;50.294;18.644;2023-08-21T07:30:30;24.00;99.90
18648;DHT22;9453;50.294;18.644;2023-08-21T07:32:57;24.00;99.90
18648;DHT22;9453;50.294;18.644;2023-08-21T07:35:24;24.00;99.90
18648;DHT22;9453;50.294;18.644;2023-08-21T07:37:50;24.10;99.90
18648;DHT22;9453;50.294;18.644;2023-08-21T07:40:17;24.20;99.90
18648;DHT22;9453;50.294;18.644;2023-08-21T07:42:44;24.40;99.90
18648;DHT22;9453;50.294;18.644;2023-08-21T07:45:12;24.60;99.90
18648;DHT22;9453;50.294;18.644;2023-08-21T07:47:39;24.70;99.90
18648;DHT22;9453;50.294;18.644;2023-08-21T07:50:07;24.90;99.90
18648;DHT22;9453;50.294;18.644;2023-08-21T07:52:35;25.00;99.90
18648;DHT22;9453;50.294;18.644;2023-08-21T07:55:02;25.20;99.90
18648;DHT22;9453;50.294;18.644;2023-08-21T07:57:29;25.30;99.90
18648;DHT22;9453;50.294;18.644;2023-08-21T07:59:56;25.40;99.90
18648;DHT22;9453;50.294;18.644;2023-08-21T08:02:25;25.50;99.90
18648;DHT22;9453;50.294;18.644;2023-08-21T08:04:52;25.50;99.90
18648;DHT22;9453;50.294;18.644;2023-08-21T08:07:19;25.50;99.90
18648;DHT22;9453;50.294;18.644;2023-08-21T08:09:46;25.50;99.90
18648;DHT22;9453;50.294;18.644;2023-08-21T08:12:13;25.30;99.90
18648;DHT22;9453;50.294;18.644;2023-08-21T08:14:41;25.30;99.90
18648;DHT22;9453;50.294;18.644;2023-08-21T08:17:07;25.30;99.90
18648;DHT22;9453;50.294;18.644;2023-08-21T08:19:36;25.30;99.90
18648;DHT22;9453;50.294;18.644;2023-08-21T08:22:03;25.30;99.90
18648;DHT22;9453;50.294;18.644;2023-08-21T08:24:30;25.40;99.90
18648;DHT22;9453;50.294;18.644;2023-08-21T08:26:56;25.40;99.90
18648;DHT22;9453;50.294;18.644;2023-08-21T08:29:23;25.50;99.90
18648;DHT22;9453;50.294;18.644;2023-08-21T08:31:50;25.40;99.90
18648;DHT22;9453;50.294;18.644;2023-08-21T08:34:17;25.40;99.90
18648;DHT22;9453;50.294;18.644;2023-08-21T08:36:47;25.40;99.90
18648;DHT22;9453;50.294;18.644;2023-08-21T08:39:14;25.40;99.90
18648;DHT22;9453;50.294;18.644;2023-08-21T08:41:48;25.40;99.90
18648;DHT22;9453;50.294;18.644;2023-08-21T08:44:17;25.50;99.90
18648;DHT22;9453;50.294;18.644;2023-08-21T08:46:44;25.50;99.90
18648;DHT22;9453;50.294;18.644;2023-08-21T08:49:11;25.50;99.90
18648;DHT22;9453;50.294;18.644;2023-08-21T08:51:39;25.70;99.90
18648;DHT22;9453;50.294;18.644;2023-08-21T08:54:11;25.70;99.90
18648;DHT22;9453;50.294;18.644;2023-08-21T08:56:38;25.80;99.90
18648;DHT22;9453;50.294;18.644;2023-08-21T08:59:07;25.90;99.90
18648;DHT22;9453;50.294;18.644;2023-08-21T09:01:34;25.90;99.90
18648;DHT22;9453;50.294;18.644;2023-08-21T09:04:02;26.00;99.90
18648;DHT22;9453;50.294;18.644;2023-08-21T09:06:30;26.10;99.90
18648;DHT22;9453;50.294;18.644;2023-08-21T09:08:58;26.10;99.90
18648;DHT22;9453;50.294;18.644;2023-08-21T09:11:27;26.30;99.90
18648;DHT22;9453;50.294;18.644;2023-08-21T09:13:55;26.60;99.90
18648;DHT22;9453;50.294;18.644;2023-08-21T09:16:24;26.80;99.90
18648;DHT22;9453;50.294;18.644;2023-08-21T09:18:53;27.10;99.90
18648;DHT22;9453;50.294;18.644;2023-08-21T09:21:21;27.40;99.90
18648;DHT22;9453;50.294;18.644;2023-08-21T09:23:56;27.50;99.60
18648;DHT22;9453;50.294;18.644;2023-08-21T09:26:24;27.60;99.50
18648;DHT22;9453;50.294;18.644;2023-08-21T09:28:53;27.80;98.10
18648;DHT22;9453;50.294;18.644;2023-08-21T09:31:22;27.70;98.00
18648;DHT22;9453;50.294;18.644;2023-08-21T09:33:55;27.90;97.90
18648;DHT22;9453;50.294;18.644;2023-08-21T09:36:22;28.10;97.80
18648;DHT22;9453;50.294;18.644;2023-08-21T09:38:50;28.20;97.60
18648;DHT22;9453;50.294;18.644;2023-08-21T09:41:19;28.30;96.90
18648;DHT22;9453;50.294;18.644;2023-08-21T09:43:46;28.50;96.80
18648;DHT22;9453;50.294;18.644;2023-08-21T09:46:15;28.70;96.50
18648;DHT22;9453;50.294;18.644;2023-08-21T09:48:44;28.70;95.10
18648;DHT22;9453;50.294;18.644;2023-08-21T09:51:11;28.70;94.90
18648;DHT22;9453;50.294;18.644;2023-08-21T09:53:38;28.50;95.40
18648;DHT22;9453;50.294;18.644;2023-08-21T09:56:05;28.50;95.50
18648;DHT22;9453;50.294;18.644;2023-08-21T09:58:32;28.30;95.40
18648;DHT22;9453;50.294;18.644;2023-08-21T10:01:01;28.20;95.70
18648;DHT22;9453;50.294;18.644;2023-08-21T10:03:36;27.90;95.70
18648;DHT22;9453;50.294;18.644;2023-08-21T10:06:04;27.70;96.20
18648;DHT22;9453;50.294;18.644;2023-08-21T10:08:37;27.60;96.60
18648;DHT22;9453;50.294;18.644;2023-08-21T10:11:05;27.60;96.70
18648;DHT22;9453;50.294;18.644;2023-08-21T10:13:34;27.60;97.10
18648;DHT22;9453;50.294;18.644;2023-08-21T10:16:01;27.50;97.10
18648;DHT22;9453;50.294;18.644;2023-08-21T10:18:31;27.50;97.20
18648;DHT22;9453;50.294;18.644;2023-08-21T10:21:10;27.40;97.50
18648;DHT22;9453;50.294;18.644;2023-08-21T10:23:39;27.20;97.70
18648;DHT22;9453;50.294;18.644;2023-08-21T10:26:09;27.10;98.60
18648;DHT22;9453;50.294;18.644;2023-08-21T10:28:49;27.00;99.40
18648;DHT22;9453;50.294;18.644;2023-08-21T10:31:33;27.00;99.80
18648;DHT22;9453;50.294;18.644;2023-08-21T10:34:03;27.00;99.30
18648;DHT22;9453;50.294;18.644;2023-08-21T10:37:05;27.10;99.40
18648;DHT22;9453;50.294;18.644;2023-08-21T10:39:33;27.20;99.40
18648;DHT22;9453;50.294;18.644;2023-08-21T10:42:05;27.40;99.20
18648;DHT22;9453;50.294;18.644;2023-08-21T10:44:37;27.40;98.10
18648;DHT22;9453;50.294;18.644;2023-08-21T10:47:16;27.40;97.70
18648;DHT22;9453;50.294;18.644;2023-08-21T10:49:45;27.50;97.70
18648;DHT22;9453;50.294;18.644;2023-08-21T10:52:14;27.50;97.50
18648;DHT22;9453;50.294;18.644;2023-08-21T10:54:47;27.50;97.30
18648;DHT22;9453;50.294;18.644;2023-08-21T10:57:15;27.60;97.60
18648;DHT22;9453;50.294;18.644;2023-08-21T10:59:52;27.70;98.20
18648;DHT22;9453;50.294;18.644;2023-08-21T11:02:19;27.60;98.70
18648;DHT22;9453;50.294;18.644;2023-08-21T11:04:46;27.60;99.10
18648;DHT22;9453;50.294;18.644;2023-08-21T11:07:14;27.60;99.20
18648;DHT22;9453;50.294;18.644;2023-08-21T11:09:42;27.70;99.30
18648;DHT22;9453;50.294;18.644;2023-08-21T11:12:11;27.90;99.30
18648;DHT22;9453;50.294;18.644;2023-08-21T11:14:39;27.90;97.20
18648;DHT22;9453;50.294;18.644;2023-08-21T11:17:06;28.00;97.40
18648;DHT22;9453;50.294;18.644;2023-08-21T11:19:34;28.00;96.60
18648;DHT22;9453;50.294;18.644;2023-08-21T11:22:01;28.00;96.60
18648;DHT22;9453;50.294;18.644;2023-08-21T11:24:42;27.90;96.50
18648;DHT22;9453;50.294;18.644;2023-08-21T11:27:10;27.90;96.90
18648;DHT22;9453;50.294;18.644;2023-08-21T11:29:38;27.80;96.50
18648;DHT22;9453;50.294;18.644;2023-08-21T11:32:12;27.60;96.60
18648;DHT22;9453;50.294;18.644;2023-08-21T11:34:39;27.40;96.60
18648;DHT22;9453;50.294;18.644;2023-08-21T11:37:06;27.30;96.60
18648;DHT22;9453;50.294;18.644;2023-08-21T11:39:42;27.40;96.70
18648;DHT22;9453;50.294;18.644;2023-08-21T11:42:10;27.50;96.90
18648;DHT22;9453;50.294;18.644;2023-08-21T11:44:45;27.60;97.10
18648;DHT22;9453;50.294;18.644;2023-08-21T11:47:12;27.70;97.40
18648;DHT22;9453;50.294;18.644;2023-08-21T11:49:40;27.80;97.10
18648;DHT22;9453;50.294;18.644;2023-08-21T11:52:08;27.90;97.30
18648;DHT22;9453;50.294;18.644;2023-08-21T11:54:35;27.90;97.20
18648;DHT22;9453;50.294;18.644;2023-08-21T11:57:08;28.00;97.20
18648;DHT22;9453;50.294;18.644;2023-08-21T11:59:35;28.10;97.40
18648;DHT22;9453;50.294;18.644;2023-08-21T12:02:13;28.00;97.30
18648;DHT22;9453;50.294;18.644;2023-08-21T12:04:40;28.00;97.40
18648;DHT22;9453;50.294;18.644;2023-08-21T12:07:07;28.00;97.70
18648;DHT22;9453;50.294;18.644;2023-08-21T12:09:34;28.10;97.10
18648;DHT22;9453;50.294;18.644;2023-08-21T12:12:01;28.10;96.60
18648;DHT22;9453;50.294;18.644;2023-08-21T12:14:30;28.10;96.20
18648;DHT22;9453;50.294;18.644;2023-08-21T12:16:56;28.10;96.20
18648;DHT22;9453;50.294;18.644;2023-08-21T12:19:24;28.10;96.60
18648;DHT22;9453;50.294;18.644;2023-08-21T12:21:51;28.10;96.80
18648;DHT22;9453;50.294;18.644;2023-08-21T12:24:18;28.00;96.90
18648;DHT22;9453;50.294;18.644;2023-08-21T12:26:45;28.00;96.60
18648;DHT22;9453;50.294;18.644;2023-08-21T12:29:12;28.00;96.10
18648;DHT22;9453;50.294;18.644;2023-08-21T12:31:40;28.10;96.60
18648;DHT22;9453;50.294;18.644;2023-08-21T12:34:07;28.20;96.20
18648;DHT22;9453;50.294;18.644;2023-08-21T12:36:34;28.20;95.60
18648;DHT22;9453;50.294;18.644;2023-08-21T12:39:02;28.30;95.70
18648;DHT22;9453;50.294;18.644;2023-08-21T12:41:30;28.20;94.40
18648;DHT22;9453;50.294;18.644;2023-08-21T12:43:58;28.30;94.90
18648;DHT22;9453;50.294;18.644;2023-08-21T12:46:25;28.30;94.30
18648;DHT22;9453;50.294;18.644;2023-08-21T12:48:54;28.30;92.90
18648;DHT22;9453;50.294;18.644;2023-08-21T12:51:21;28.40;92.80
18648;DHT22;9453;50.294;18.644;2023-08-21T12:53:49;28.40;92.50
18648;DHT22;9453;50.294;18.644;2023-08-21T12:56:16;28.50;93.10
18648;DHT22;9453;50.294;18.644;2023-08-21T12:58:43;28.60;92.30
18648;DHT22;9453;50.294;18.644;2023-08-21T13:01:10;28.70;89.90
18648;DHT22;9453;50.294;18.644;2023-08-21T13:03:38;28.80;90.00
18648;DHT22;9453;50.294;18.644;2023-08-21T13:06:06;29.00;89.30
18648;DHT22;9453;50.294;18.644;2023-08-21T13:08:33;29.10;87.50
18648;DHT22;9453;50.294;18.644;2023-08-21T13:11:00;29.20;85.70
18648;DHT22;9453;50.294;18.644;2023-08-21T13:13:28;29.30;84.10
18648;DHT22;9453;50.294;18.644;2023-08-21T13:15:55;29.40;84.90
18648;DHT22;9453;50.294;18.644;2023-08-21T13:18:22;29.50;84.80
18648;DHT22;9453;50.294;18.644;2023-08-21T13:20:49;29.60;83.70
18648;DHT22;9453;50.294;18.644;2023-08-21T13:23:17;29.70;83.30
18648;DHT22;9453;50.294;18.644;2023-08-21T13:25:44;29.80;83.00
18648;DHT22;9453;50.294;18.644;2023-08-21T13:28:11;29.80;82.90
18648;DHT22;9453;50.294;18.644;2023-08-21T13:30:38;29.80;83.40
18648;DHT22;9453;50.294;18.644;2023-08-21T13:33:05;29.80;82.60
18648;DHT22;9453;50.294;18.644;2023-08-21T13:35:32;29.80;82.60
18648;DHT22;9453;50.294;18.644;2023-08-21T13:37:59;29.80;83.10
18648;DHT22;9453;50.294;18.644;2023-08-21T13:40:27;29.80;81.00
18648;DHT22;9453;50.294;18.644;2023-08-21T13:42:54;29.80;81.20
18648;DHT22;9453;50.294;18.644;2023-08-21T13:45:23;29.80;81.20
18648;DHT22;9453;50.294;18.644;2023-08-21T13:47:50;29.90;81.50
18648;DHT22;9453;50.294;18.644;2023-08-21T13:50:18;29.90;82.30
18648;DHT22;9453;50.294;18.644;2023-08-21T13:52:46;30.00;81.60
18648;DHT22;9453;50.294;18.644;2023-08-21T13:55:14;30.00;81.50
18648;DHT22;9453;50.294;18.644;2023-08-21T13:57:43;30.00;81.90
18648;DHT22;9453;50.294;18.644;2023-08-21T14:00:11;30.20;83.10
18648;DHT22;9453;50.294;18.644;2023-08-21T14:02:39;30.20;82.60
18648;DHT22;9453;50.294;18.644;2023-08-21T14:05:07;30.30;82.80
18648;DHT22;9453;50.294;18.644;2023-08-21T14:07:35;30.20;83.10
18648;DHT22;9453;50.294;18.644;2023-08-21T14:10:03;30.10;82.80
18648;DHT22;9453;50.294;18.644;2023-08-21T14:12:31;30.30;83.70
18648;DHT22;9453;50.294;18.644;2023-08-21T14:14:59;30.60;81.80
18648;DHT22;9453;50.294;18.644;2023-08-21T14:17:27;30.80;80.30
18648;DHT22;9453;50.294;18.644;2023-08-21T14:19:54;31.00;80.00
18648;DHT22;9453;50.294;18.644;2023-08-21T14:22:20;31.20;79.90
18648;DHT22;9453;50.294;18.644;2023-08-21T14:24:47;31.30;77.60
18648;DHT22;9453;50.294;18.644;2023-08-21T14:27:14;31.40;78.70
18648;DHT22;9453;50.294;18.644;2023-08-21T14:29:42;31.40;78.50
18648;DHT22;9453;50.294;18.644;2023-08-21T14:32:11;31.40;78.50
18648;DHT22;9453;50.294;18.644;2023-08-21T14:34:38;31.20;78.20
18648;DHT22;9453;50.294;18.644;2023-08-21T14:37:05;31.20;79.10
18648;DHT22;9453;50.294;18.644;2023-08-21T14:39:32;31.30;79.30
18648;DHT22;9453;50.294;18.644;2023-08-21T14:41:59;31.40;78.90
18648;DHT22;9453;50.294;18.644;2023-08-21T14:44:26;31.50;78.50
18648;DHT22;9453;50.294;18.644;2023-08-21T14:46:54;31.50;78.70
18648;DHT22;9453;50.294;18.644;2023-08-21T14:49:26;31.60;79.00
18648;DHT22;9453;50.294;18.644;2023-08-21T14:51:54;31.50;78.40
18648;DHT22;9453;50.294;18.644;2023-08-21T14:54:21;31.20;79.70
18648;DHT22;9453;50.294;18.644;2023-08-21T14:56:48;31.00;80.10
18648;DHT22;9453;50.294;18.644;2023-08-21T14:59:15;30.80;81.20
18648;DHT22;9453;50.294;18.644;2023-08-21T15:01:42;30.60;81.60
18648;DHT22;9453;50.294;18.644;2023-08-21T15:04:09;30.40;82.40
18648;DHT22;9453;50.294;18.644;2023-08-21T15:06:38;30.20;83.40
18648;DHT22;9453;50.294;18.644;2023-08-21T15:09:05;30.10;83.70
18648;DHT22;9453;50.294;18.644;2023-08-21T15:11:33;30.20;84.10
18648;DHT22;9453;50.294;18.644;2023-08-21T15:14:01;30.10;83.30
18648;DHT22;9453;50.294;18.644;2023-08-21T15:16:29;30.00;83.60
18648;DHT22;9453;50.294;18.644;2023-08-21T15:18:56;30.00;84.40
18648;DHT22;9453;50.294;18.644;2023-08-21T15:21:24;29.90;84.20
18648;DHT22;9453;50.294;18.644;2023-08-21T15:23:53;29.90;84.70
18648;DHT22;9453;50.294;18.644;2023-08-21T15:26:20;29.80;85.40
18648;DHT22;9453;50.294;18.644;2023-08-21T15:28:47;29.90;86.00
18648;DHT22;9453;50.294;18.644;2023-08-21T15:31:14;29.80;85.60
18648;DHT22;9453;50.294;18.644;2023-08-21T15:33:41;29.80;86.00
18648;DHT22;9453;50.294;18.644;2023-08-21T15:36:08;29.70;86.00
18648;DHT22;9453;50.294;18.644;2023-08-21T15:38:35;29.90;86.20
18648;DHT22;9453;50.294;18.644;2023-08-21T15:41:03;30.00;86.30
18648;DHT22;9453;50.294;18.644;2023-08-21T15:43:30;30.20;85.50
18648;DHT22;9453;50.294;18.644;2023-08-21T15:45:57;30.30;85.10
18648;DHT22;9453;50.294;18.644;2023-08-21T15:48:24;30.50;84.30
18648;DHT22;9453;50.294;18.644;2023-08-21T15:50:51;30.60;84.10
18648;DHT22;9453;50.294;18.644;2023-08-21T15:53:18;30.50;83.40
18648;DHT22;9453;50.294;18.644;2023-08-21T15:55:45;30.50;83.70
18648;DHT22;9453;50.294;18.644;2023-08-21T15:58:13;30.50;83.90
18648;DHT22;9453;50.294;18.644;2023-08-21T16:00:40;30.60;84.40
18648;DHT22;9453;50.294;18.644;2023-08-21T16:03:07;30.60;83.70
18648;DHT22;9453;50.294;18.644;2023-08-21T16:05:34;30.60;84.40
18648;DHT22;9453;50.294;18.644;2023-08-21T16:08:01;30.30;84.10
18648;DHT22;9453;50.294;18.644;2023-08-21T16:10:28;30.10;84.50
18648;DHT22;9453;50.294;18.644;2023-08-21T16:12:55;29.90;83.80
18648;DHT22;9453;50.294;18.644;2023-08-21T16:15:23;30.00;85.00
18648;DHT22;9453;50.294;18.644;2023-08-21T16:17:50;29.70;85.10
18648;DHT22;9453;50.294;18.644;2023-08-21T16:20:17;29.70;85.50
18648;DHT22;9453;50.294;18.644;2023-08-21T16:22:44;29.60;85.60
18648;DHT22;9453;50.294;18.644;2023-08-21T16:25:13;29.50;85.90
18648;DHT22;9453;50.294;18.644;2023-08-21T16:27:39;29.40;86.40
18648;DHT22;9453;50.294;18.644;2023-08-21T16:30:07;29.40;86.70
18648;DHT22;9453;50.294;18.644;2023-08-21T16:32:36;29.40;86.60
18648;DHT22;9453;50.294;18.644;2023-08-21T16:35:03;29.40;87.70
18648;DHT22;9453;50.294;18.644;2023-08-21T16:37:30;29.20;88.00
18648;DHT22;9453;50.294;18.644;2023-08-21T16:39:57;29.10;88.60
18648;DHT22;9453;50.294;18.644;2023-08-21T16:42:24;29.10;89.20
18648;DHT22;9453;50.294;18.644;2023-08-21T16:44:51;29.00;90.00
18648;DHT22;9453;50.294;18.644;2023-08-21T16:47:18;28.80;90.30
18648;DHT22;9453;50.294;18.644;2023-08-21T16:49:46;28.70;90.70
18648;DHT22;9453;50.294;18.644;2023-08-21T16:52:13;28.50;90.90
18648;DHT22;9453;50.294;18.644;2023-08-21T16:54:40;28.40;91.30
18648;DHT22;9453;50.294;18.644;2023-08-21T16:57:07;28.30;91.70
18648;DHT22;9453;50.294;18.644;2023-08-21T16:59:34;28.30;91.90
18648;DHT22;9453;50.294;18.644;2023-08-21T17:02:01;28.20;92.10
18648;DHT22;9453;50.294;18.644;2023-08-21T17:04:28;28.20;92.40
18648;DHT22;9453;50.294;18.644;2023-08-21T17:06:56;28.10;92.60
18648;DHT22;9453;50.294;18.644;2023-08-21T17:09:24;28.00;92.90
18648;DHT22;9453;50.294;18.644;2023-08-21T17:11:51;27.90;93.30
18648;DHT22;9453;50.294;18.644;2023-08-21T17:14:18;27.70;93.50
18648;DHT22;9453;50.294;18.644;2023-08-21T17:16:45;27.60;94.00
18648;DHT22;9453;50.294;18.644;2023-08-21T17:19:12;27.50;94.50
18648;DHT22;9453;50.294;18.644;2023-08-21T17:21:39;27.40;95.00
18648;DHT22;9453;50.294;18.644;2023-08-21T17:24:07;27.30;95.50
18648;DHT22;9453;50.294;18.644;2023-08-21T17:26:34;27.20;96.00
18648;DHT22;9453;50.294;18.644;2023-08-21T17:29:01;27.10;96.50
18648;DHT22;9453;50.294;18.644;2023-08-21T17:31:29;27.00;96.90
18648;DHT22;9453;50.294;18.644;2023-08-21T17:33:57;26.90;97.40
18648;DHT22;9453;50.294;18.644;2023-08-21T17:36:23;26.80;97.80
18648;DHT22;9453;50.294;18.644;2023-08-21T17:38:51;26.80;98.30
18648;DHT22;9453;50.294;18.644;2023-08-21T17:41:20;26.70;98.80
18648;DHT22;9453;50.294;18.644;2023-08-21T17:43:47;26.60;99.20
18648;DHT22;9453;50.294;18.644;2023-08-21T17:46:14;26.50;99.60
18648;DHT22;9453;50.294;18.644;2023-08-21T17:48:42;26.50;99.90
18648;DHT22;9453;50.294;18.644;2023-08-21T17:51:10;26.40;99.90
18648;DHT22;9453;50.294;18.644;2023-08-21T17:53:37;26.30;99.90
18648;DHT22;9453;50.294;18.644;2023-08-21T17:56:04;26.20;99.90
18648;DHT22;9453;50.294;18.644;2023-08-21T17:58:34;26.10;99.90
18648;DHT22;9453;50.294;18.644;2023-08-21T18:01:01;26.10;99.90
18648;DHT22;9453;50.294;18.644;2023-08-21T18:03:28;26.00;99.90
18648;DHT22;9453;50.294;18.644;2023-08-21T18:05:55;26.00;99.90
18648;DHT22;9453;50.294;18.644;2023-08-21T18:08:22;25.90;99.90
18648;DHT22;9453;50.294;18.644;2023-08-21T18:10:49;25.80;99.90
18648;DHT22;9453;50.294;18.644;2023-08-21T18:13:16;25.80;99.90
18648;DHT22;9453;50.294;18.644;2023-08-21T18:15:48;25.80;99.90
18648;DHT22;9453;50.294;18.644;2023-08-21T18:18:15;25.70;99.90
18648;DHT22;9453;50.294;18.644;2023-08-21T18:20:49;25.60;99.90
18648;DHT22;9453;50.294;18.644;2023-08-21T18:23:17;25.50;99.90
18648;DHT22;9453;50.294;18.644;2023-08-21T18:25:44;25.50;99.90
18648;DHT22;9453;50.294;18.644;2023-08-21T18:28:11;25.40;99.90
18648;DHT22;9453;50.294;18.644;2023-08-21T18:30:40;25.40;99.90
18648;DHT22;9453;50.294;18.644;2023-08-21T18:33:08;25.30;99.90
18648;DHT22;9453;50.294;18.644;2023-08-21T18:35:36;25.30;99.90
18648;DHT22;9453;50.294;18.644;2023-08-21T18:38:04;25.20;99.90
18648;DHT22;9453;50.294;18.644;2023-08-21T18:40:31;25.20;99.90
18648;DHT22;9453;50.294;18.644;2023-08-21T18:42:59;25.10;99.90
18648;DHT22;9453;50.294;18.644;2023-08-21T18:45:25;25.10;99.90
18648;DHT22;9453;50.294;18.644;2023-08-21T18:47:53;25.00;99.90
18648;DHT22;9453;50.294;18.644;2023-08-21T18:50:33;25.00;99.90
18648;DHT22;9453;50.294;18.644;2023-08-21T18:53:00;24.90;99.90
18648;DHT22;9453;50.294;18.644;2023-08-21T18:55:27;24.90;99.90
18648;DHT22;9453;50.294;18.644;2023-08-21T18:57:54;24.80;99.90
18648;DHT22;9453;50.294;18.644;2023-08-21T19:00:21;24.80;99.90
18648;DHT22;9453;50.294;18.644;2023-08-21T19:02:48;24.80;99.90
18648;DHT22;9453;50.294;18.644;2023-08-21T19:05:14;24.70;99.90
18648;DHT22;9453;50.294;18.644;2023-08-21T19:07:43;24.70;99.90
18648;DHT22;9453;50.294;18.644;2023-08-21T19:10:10;24.60;99.90
18648;DHT22;9453;50.294;18.644;2023-08-21T19:12:37;24.60;99.90
18648;DHT22;9453;50.294;18.644;2023-08-21T19:15:05;24.50;99.90
18648;DHT22;9453;50.294;18.644;2023-08-21T19:17:32;24.50;99.90
18648;DHT22;9453;50.294;18.644;2023-08-21T19:19:59;24.40;99.90
18648;DHT22;9453;50.294;18.644;2023-08-21T19:22:26;24.40;99.90
18648;DHT22;9453;50.294;18.644;2023-08-21T19:24:54;24.30;99.90
18648;DHT22;9453;50.294;18.644;2023-08-21T19:27:21;24.30;99.90
18648;DHT22;9453;50.294;18.644;2023-08-21T19:29:48;24.20;99.90
18648;DHT22;9453;50.294;18.644;2023-08-21T19:32:15;24.20;99.90
18648;DHT22;9453;50.294;18.644;2023-08-21T19:34:44;24.20;99.90